sensor_id;sensor_type;location;lat;lon;timestamp;temperature;humidity
45311;SHT31;68264;51.540;5.854;2023-04-12T07:38:55;8.8;92.6
45311;SHT31;68264;51.540;5.854;2023-04-12T07:54:59;9.0;92.2
45311;SHT31;68264;51.540;5.854;2023-04-12T08:10:59;8.6;89.9
45311;SHT31;68264;51.540;5.854;2023-04-12T08:24:58;8.7;87.9
45311;SHT31;68264;51.540;5.854;2023-04-12T08:38:57;9.0;88.9
45311;SHT31;68264;51.540;5.854;2023-04-12T08:52:56;9.3;88.0
45311;SHT31;68264;51.540;5.854;2023-04-12T09:06:55;9.4;88.1
45311;SHT31;68264;51.540;5.854;2023-04-12T09:20:54;9.7;86.2
45311;SHT31;68264;51.540;5.854;2023-04-12T09:34:53;11.1;80.9
45311;SHT31;68264;51.540;5.854;2023-04-12T09:48:52;11.7;75.7
45311;SHT31;68264;51.540;5.854;2023-04-12T10:02:51;11.0;77.5
45311;SHT31;68264;51.540;5.854;2023-04-12T10:16:50;11.5;75.6
45311;SHT31;68264;51.540;5.854;2023-04-12T10:30:49;11.4;75.6
45311;SHT31;68264;51.540;5.854;2023-04-12T10:44:48;11.7;73.2
45311;SHT31;68264;51.540;5.854;2023-04-12T10:58:47;11.5;72.5
45311;SHT31;68264;51.540;5.854;2023-04-12T11:13:15;11.0;78.3
45311;SHT31;68264;51.540;5.854;2023-04-12T11:28:04;10.4;75.7
45311;SHT31;68264;51.540;5.854;2023-04-12T11:42:52;9.6;78.8
45311;SHT31;68264;51.540;5.854;2023-04-12T11:57:11;9.5;79.1
45311;SHT31;68264;51.540;5.854;2023-04-12T12:11:39;8.9;83.3
45311;SHT31;68264;51.540;5.854;2023-04-12T12:26:28;9.0;84.0
45311;SHT31;68264;51.540;5.854;2023-04-12T12:40:47;9.3;81.9
45311;SHT31;68264;51.540;5.854;2023-04-12T12:54:46;9.5;83.1
45311;SHT31;68264;51.540;5.854;2023-04-12T13:09:14;8.1;82.9
45311;SHT31;68264;51.540;5.854;2023-04-12T13:24:35;8.7;80.1
45311;SHT31;68264;51.540;5.854;2023-04-12T13:39:34;9.1;80.0
45311;SHT31;68264;51.540;5.854;2023-04-12T13:53:33;9.2;80.7
45311;SHT31;68264;51.540;5.854;2023-04-12T14:07:32;7.7;84.9
45311;SHT31;68264;51.540;5.854;2023-04-12T14:21:31;7.5;83.1
45311;SHT31;68264;51.540;5.854;2023-04-12T14:35:30;7.9;85.4
45311;SHT31;68264;51.540;5.854;2023-04-12T14:52:07;8.4;83.4
45311;SHT31;68264;51.540;5.854;2023-04-12T15:09:06;8.2;84.5
45311;SHT31;68264;51.540;5.854;2023-04-12T15:23:26;7.6;85.0
45311;SHT31;68264;51.540;5.854;2023-04-12T15:37:25;7.7;84.6
45311;SHT31;68264;51.540;5.854;2023-04-12T15:51:24;8.1;84.6
45311;SHT31;68264;51.540;5.854;2023-04-12T16:05:23;8.3;85.7
45311;SHT31;68264;51.540;5.854;2023-04-12T16:19:51;9.4;87.0
45311;SHT31;68264;51.540;5.854;2023-04-12T16:34:39;10.6;75.9
45311;SHT31;68264;51.540;5.854;2023-04-12T16:48:58;10.4;75.6
45311;SHT31;68264;51.540;5.854;2023-04-12T17:02:57;10.1;79.2
45311;SHT31;68264;51.540;5.854;2023-04-12T17:16:56;10.5;78.5
45311;SHT31;68264;51.540;5.854;2023-04-12T17:31:24;11.0;76.2
45311;SHT31;68264;51.540;5.854;2023-04-12T17:46:45;10.8;74.8
45311;SHT31;68264;51.540;5.854;2023-04-12T18:01:44;10.6;77.1
45311;SHT31;68264;51.540;5.854;2023-04-12T18:15:43;9.8;77.9
45311;SHT31;68264;51.540;5.854;2023-04-12T18:30:44;8.8;80.7
45311;SHT31;68264;51.540;5.854;2023-04-12T18:45:43;8.1;83.2
45311;SHT31;68264;51.540;5.854;2023-04-12T18:59:42;7.8;84.8
45311;SHT31;68264;51.540;5.854;2023-04-12T19:14:10;7.5;85.8
45311;SHT31;68264;51.540;5.854;2023-04-12T19:28:30;7.3;85.7
45311;SHT31;68264;51.540;5.854;2023-04-12T19:42:58;7.2;84.0
45311;SHT31;68264;51.540;5.854;2023-04-12T19:57:17;7.5;77.1
45311;SHT31;68264;51.540;5.854;2023-04-12T20:11:16;7.4;72.7
45311;SHT31;68264;51.540;5.854;2023-04-12T20:25:15;7.2;72.3
45311;SHT31;68264;51.540;5.854;2023-04-12T20:39:14;7.0;71.6
45311;SHT31;68264;51.540;5.854;2023-04-12T20:53:13;6.9;72.6
45311;SHT31;68264;51.540;5.854;2023-04-12T21:07:12;7.0;73.2
45311;SHT31;68264;51.540;5.854;2023-04-12T21:21:11;6.8;74.9
45311;SHT31;68264;51.540;5.854;2023-04-12T21:35:10;6.5;78.7
45311;SHT31;68264;51.540;5.854;2023-04-12T21:50:10;6.4;80.5
45311;SHT31;68264;51.540;5.854;2023-04-12T22:05:10;6.5;80.5
45311;SHT31;68264;51.540;5.854;2023-04-12T22:19:09;6.7;79.5
